createdAt,value
2023-12-28T00:01:57.566Z,0.20
2023-12-28T00:04:59.048Z,0.55
2023-12-28T00:08:00.728Z,0.50
2023-12-28T00:11:02.387Z,0.40
2023-12-28T00:14:03.799Z,0.30
2023-12-28T00:17:05.283Z,0.27
2023-12-28T00:20:06.791Z,0.10
2023-12-28T00:23:08.351Z,0.33
2023-12-28T00:26:09.904Z,0.20
2023-12-28T00:29:11.327Z,0.27
2023-12-28T00:32:12.748Z,0.00
2023-12-28T00:35:14.189Z,0.23
2023-12-28T00:38:15.661Z,0.30
2023-12-28T00:41:17.133Z,0.20
2023-12-28T00:44:18.552Z,0.10
2023-12-28T00:47:19.986Z,0.32
2023-12-28T00:50:21.428Z,0.38
2023-12-28T00:53:22.869Z,0.20
2023-12-28T00:56:24.293Z,0.52
2023-12-28T00:59:25.674Z,0.22
2023-12-28T01:02:27.111Z,0.50
2023-12-28T01:05:28.658Z,0.32
2023-12-28T01:08:30.128Z,0.40
2023-12-28T01:11:31.630Z,0.20
2023-12-28T01:14:33.027Z,0.20
2023-12-28T01:17:34.544Z,0.30
2023-12-28T01:20:36.014Z,0.30
2023-12-28T01:23:37.474Z,0.30
2023-12-28T01:26:38.885Z,0.22
2023-12-28T01:29:40.337Z,0.30
2023-12-28T01:32:41.768Z,0.10
2023-12-28T01:35:43.260Z,0.20
2023-12-28T01:38:44.768Z,0.10
2023-12-28T01:41:46.232Z,0.10
2023-12-28T01:44:47.681Z,0.40
2023-12-28T01:47:49.298Z,0.40
2023-12-28T01:50:50.746Z,0.10
2023-12-28T01:53:52.261Z,0.60
2023-12-28T01:56:53.712Z,0.30
2023-12-28T01:59:55.172Z,0.37
2023-12-28T02:02:56.600Z,0.30
2023-12-28T02:05:58.086Z,0.43
2023-12-28T02:08:59.584Z,0.63
2023-12-28T02:12:01.140Z,0.30
2023-12-28T02:15:02.533Z,0.40
2023-12-28T02:18:04.093Z,0.20
2023-12-28T02:21:05.572Z,0.20
2023-12-28T02:24:07.044Z,0.27
2023-12-28T02:27:08.482Z,0.67
2023-12-28T02:30:09.994Z,0.13
2023-12-28T02:33:11.624Z,0.30
2023-12-28T02:36:13.203Z,0.57
2023-12-28T02:39:14.739Z,0.20
2023-12-28T02:42:16.166Z,0.20
2023-12-28T02:45:17.664Z,0.00
2023-12-28T02:48:19.549Z,0.17
2023-12-28T02:51:21.236Z,0.17
2023-12-28T02:54:22.731Z,0.30
2023-12-28T02:57:24.229Z,0.40
2023-12-28T03:00:25.729Z,0.40
2023-12-28T03:03:27.325Z,0.20
2023-12-28T03:06:29.013Z,0.13
2023-12-28T03:09:30.548Z,0.00
2023-12-28T03:12:32.057Z,0.17
2023-12-28T03:15:33.565Z,0.20
2023-12-28T03:18:35.241Z,0.17
2023-12-28T03:21:36.821Z,0.40
2023-12-28T03:24:38.387Z,0.45
2023-12-28T03:27:39.895Z,0.22
2023-12-28T03:30:41.448Z,0.45
2023-12-28T03:33:43.038Z,0.20
2023-12-28T03:36:44.491Z,0.30
2023-12-28T03:39:45.946Z,0.40
2023-12-28T03:42:47.433Z,0.10
2023-12-28T03:45:48.922Z,0.30
2023-12-28T03:48:50.491Z,0.43
2023-12-28T03:51:52.062Z,0.00
2023-12-28T03:54:53.542Z,0.40
2023-12-28T03:57:55.084Z,0.40
2023-12-28T04:00:56.720Z,0.32
2023-12-28T04:03:58.339Z,0.40
2023-12-28T04:06:59.869Z,0.50
2023-12-28T04:10:01.392Z,0.20
2023-12-28T04:13:02.868Z,0.20
2023-12-28T04:16:04.341Z,0.10
2023-12-28T04:19:05.878Z,0.00
2023-12-28T04:22:07.362Z,0.20
2023-12-28T04:25:08.814Z,0.33
2023-12-28T04:28:10.226Z,0.10
2023-12-28T04:31:11.705Z,0.37
2023-12-28T04:34:13.284Z,0.17
2023-12-28T04:37:14.893Z,0.10
2023-12-28T04:40:16.313Z,0.20
2023-12-28T04:43:17.774Z,0.30
2023-12-28T04:46:19.224Z,0.30
2023-12-28T04:49:20.734Z,0.40
2023-12-28T04:52:22.257Z,0.20
2023-12-28T04:55:23.657Z,0.20
2023-12-28T04:58:25.063Z,0.07
2023-12-28T05:01:26.657Z,0.43
2023-12-28T05:04:28.296Z,0.30
2023-12-28T05:07:29.820Z,0.30
2023-12-28T05:10:31.274Z,0.10
2023-12-28T05:13:32.787Z,0.40
2023-12-28T05:16:34.202Z,0.35
2023-12-28T05:19:35.859Z,0.50
2023-12-28T05:22:37.426Z,0.40
2023-12-28T05:25:38.875Z,0.47
2023-12-28T05:28:40.349Z,0.45
2023-12-28T05:31:42.042Z,0.57
2023-12-28T05:34:43.667Z,0.80
2023-12-28T05:37:45.146Z,0.90
2023-12-28T05:40:46.577Z,0.30
2023-12-28T05:43:48.021Z,0.82
2023-12-28T05:46:49.453Z,0.85
2023-12-28T05:49:51.059Z,0.77
2023-12-28T05:52:52.620Z,0.50
2023-12-28T05:55:54.058Z,0.52
2023-12-28T05:58:55.534Z,0.43
2023-12-28T06:01:56.940Z,0.95
2023-12-28T06:04:58.431Z,1.00
2023-12-28T06:08:00.266Z,1.10
2023-12-28T06:11:01.966Z,0.50
2023-12-28T06:14:03.358Z,0.43
2023-12-28T06:17:04.764Z,0.70
2023-12-28T06:20:06.231Z,0.70
2023-12-28T06:23:07.716Z,0.80
2023-12-28T06:26:09.232Z,0.40
2023-12-28T06:29:10.692Z,0.47
2023-12-28T06:32:12.103Z,0.80
2023-12-28T06:35:13.539Z,0.80
2023-12-28T06:38:14.982Z,0.70
2023-12-28T06:41:16.569Z,0.60
2023-12-28T06:44:17.990Z,0.82
2023-12-28T06:47:19.457Z,0.70
2023-12-28T06:50:20.864Z,0.30
2023-12-28T06:53:22.424Z,0.47
2023-12-28T06:56:23.822Z,0.28
2023-12-28T06:59:25.250Z,0.60
2023-12-28T07:02:26.712Z,0.30
2023-12-28T07:05:28.178Z,0.70
2023-12-28T07:08:31.443Z,0.32
2023-12-28T07:11:33.950Z,0.67
2023-12-28T07:14:35.480Z,0.40
2023-12-28T07:17:37.055Z,0.50
2023-12-28T07:20:38.562Z,0.70
2023-12-28T07:23:40.011Z,0.53
2023-12-28T07:26:41.457Z,0.70
2023-12-28T07:29:42.909Z,0.70
2023-12-28T07:32:44.362Z,0.73
2023-12-28T07:35:45.827Z,0.40
2023-12-28T07:38:47.300Z,0.32
2023-12-28T07:41:48.756Z,0.40
2023-12-28T07:44:50.187Z,0.75
2023-12-28T07:47:51.708Z,0.50
2023-12-28T07:50:53.172Z,0.57
2023-12-28T07:53:54.694Z,0.50
2023-12-28T07:56:56.103Z,0.50
2023-12-28T07:59:57.533Z,0.75
2023-12-28T08:02:58.982Z,0.20
2023-12-28T08:06:00.410Z,0.13
2023-12-28T08:09:01.904Z,0.35
2023-12-28T08:12:03.371Z,0.65
2023-12-28T08:15:04.797Z,0.35
2023-12-28T08:18:06.413Z,0.40
2023-12-28T08:21:07.917Z,0.20
2023-12-28T08:24:09.356Z,0.50
2023-12-28T08:27:10.778Z,0.20
2023-12-28T08:30:12.262Z,0.10
2023-12-28T08:33:13.943Z,0.20
2023-12-28T08:36:15.706Z,0.60
2023-12-28T08:39:17.293Z,0.30
2023-12-28T08:42:18.805Z,0.45
2023-12-28T08:45:20.343Z,0.20
2023-12-28T08:48:21.948Z,0.60
2023-12-28T08:51:23.483Z,0.40
2023-12-28T08:54:25.422Z,0.80
2023-12-28T08:57:35.980Z,0.47
2023-12-28T09:00:43.789Z,0.60
2023-12-28T09:03:45.784Z,0.32
2023-12-28T09:06:47.439Z,1.05
2023-12-28T09:09:48.910Z,0.70
2023-12-28T09:12:50.448Z,0.65
2023-12-28T09:15:51.985Z,0.40
2023-12-28T09:18:53.558Z,0.57
2023-12-28T09:21:55.059Z,0.80
2023-12-28T09:24:56.566Z,0.60
2023-12-28T09:27:58.306Z,0.80
2023-12-28T09:30:59.916Z,0.50
2023-12-28T09:34:01.482Z,0.80
2023-12-28T09:37:03.097Z,0.60
2023-12-28T09:40:04.596Z,0.80
2023-12-28T09:43:06.082Z,0.13
2023-12-28T09:46:07.571Z,0.65
2023-12-28T09:49:09.165Z,0.60
2023-12-28T09:52:10.745Z,0.40
2023-12-28T09:55:12.196Z,1.00
2023-12-28T09:58:13.641Z,0.90
2023-12-28T10:01:15.268Z,0.95
2023-12-28T10:04:16.841Z,0.50
2023-12-28T10:07:18.326Z,0.47
2023-12-28T10:10:19.757Z,0.25
2023-12-28T10:13:21.224Z,0.30
2023-12-28T10:16:22.668Z,0.50
2023-12-28T10:19:24.306Z,0.38
2023-12-28T10:22:25.819Z,1.02
2023-12-28T10:25:27.244Z,0.50
2023-12-28T10:28:28.672Z,0.50
2023-12-28T10:31:30.313Z,0.65
2023-12-28T10:34:32.328Z,0.60
2023-12-28T10:37:34.239Z,0.70
2023-12-28T10:40:35.670Z,0.47
2023-12-28T10:43:37.143Z,0.45
2023-12-28T10:46:38.565Z,0.45
2023-12-28T10:49:40.113Z,0.45
2023-12-28T10:52:41.624Z,0.60
2023-12-28T10:55:43.014Z,1.00
2023-12-28T10:58:44.438Z,0.90
2023-12-28T11:01:45.893Z,0.53
2023-12-28T11:04:47.471Z,1.20
2023-12-28T11:07:48.893Z,0.73
2023-12-28T11:10:50.422Z,0.70
2023-12-28T11:13:51.859Z,0.30
2023-12-28T11:16:53.289Z,0.38
2023-12-28T11:19:54.693Z,0.38
2023-12-28T11:22:56.182Z,0.75
2023-12-28T11:25:57.649Z,0.57
2023-12-28T11:28:59.080Z,0.70
2023-12-28T11:32:00.565Z,0.80
2023-12-28T11:35:02.296Z,0.90
2023-12-28T11:38:03.898Z,0.60
2023-12-28T11:41:05.364Z,0.45
2023-12-28T11:44:06.759Z,0.70
2023-12-28T11:47:08.180Z,0.70
2023-12-28T11:50:09.582Z,0.95
2023-12-28T11:53:11.001Z,0.82
2023-12-28T11:56:12.414Z,0.70
2023-12-28T11:59:13.887Z,0.82
2023-12-28T12:02:15.318Z,0.80
2023-12-28T12:05:16.783Z,0.80
2023-12-28T12:08:18.219Z,1.20
2023-12-28T12:11:19.651Z,1.37
2023-12-28T12:14:21.195Z,1.37
2023-12-28T12:17:22.639Z,1.20
2023-12-28T12:20:24.130Z,0.77
2023-12-28T12:23:25.584Z,0.90
2023-12-28T12:26:27.018Z,2.00
2023-12-28T12:29:29.545Z,2.67
2023-12-28T12:32:31.348Z,8.30
2023-12-28T12:35:32.869Z,16.50
2023-12-28T12:38:34.284Z,21.13
2023-12-28T12:41:35.705Z,19.27
2023-12-28T12:44:37.227Z,15.50
2023-12-28T12:47:38.700Z,12.50
2023-12-28T12:50:40.164Z,10.37
2023-12-28T12:53:41.597Z,7.15
2023-12-28T12:56:43.060Z,4.03
2023-12-28T12:59:44.503Z,3.60
2023-12-28T13:02:46.043Z,2.50
2023-12-28T13:05:47.490Z,3.28
2023-12-28T13:08:48.961Z,2.95
2023-12-28T13:11:50.408Z,2.70
2023-12-28T13:14:51.830Z,3.63
2023-12-28T13:17:53.284Z,2.30
2023-12-28T13:20:54.717Z,1.88
2023-12-28T13:23:56.175Z,1.42
2023-12-28T13:26:57.601Z,1.73
2023-12-28T13:29:59.081Z,2.70
2023-12-28T13:33:01.009Z,2.30
2023-12-28T13:36:02.742Z,2.22
2023-12-28T13:39:04.170Z,3.30
2023-12-28T13:42:05.573Z,1.95
2023-12-28T13:45:07.034Z,2.38
2023-12-28T13:48:08.598Z,2.38
2023-12-28T13:51:10.126Z,1.85
2023-12-28T13:54:11.559Z,2.25
2023-12-28T13:57:12.995Z,1.92
2023-12-28T14:00:14.421Z,1.60
2023-12-28T14:03:15.946Z,2.50
2023-12-28T14:06:17.478Z,1.50
2023-12-28T14:09:18.901Z,2.30
2023-12-28T14:12:20.419Z,2.03
2023-12-28T14:15:21.932Z,2.10
2023-12-28T14:18:23.588Z,2.10
2023-12-28T14:21:25.124Z,2.03
2023-12-28T14:24:26.581Z,2.25
2023-12-28T14:27:28.160Z,2.63
2023-12-28T14:30:29.757Z,2.92
2023-12-28T14:33:31.312Z,3.60
2023-12-28T14:36:32.887Z,3.28
2023-12-28T14:39:34.410Z,4.28
2023-12-28T14:42:35.907Z,3.50
2023-12-28T14:45:37.380Z,3.50
2023-12-28T14:48:38.885Z,3.15
2023-12-28T14:51:40.354Z,2.42
2023-12-28T14:54:41.843Z,2.53
2023-12-28T14:57:43.397Z,2.65
2023-12-28T15:00:44.885Z,1.98
2023-12-28T15:03:46.448Z,1.63
2023-12-28T15:06:47.931Z,2.40
2023-12-28T15:09:49.444Z,2.38
2023-12-28T15:12:54.585Z,1.80
2023-12-28T15:15:56.110Z,2.47
2023-12-28T15:18:57.594Z,1.70
2023-12-28T15:21:59.081Z,2.00
2023-12-28T15:25:00.631Z,1.52
2023-12-28T15:28:02.475Z,1.65
2023-12-28T15:31:04.182Z,1.83
2023-12-28T15:34:05.720Z,1.77
2023-12-28T15:37:07.313Z,1.48
2023-12-28T15:40:08.851Z,1.53
2023-12-28T15:43:10.495Z,1.50
2023-12-28T15:46:11.976Z,0.83
2023-12-28T15:49:13.548Z,1.20
2023-12-28T15:52:14.990Z,1.37
2023-12-28T15:55:16.524Z,1.20
2023-12-28T15:58:18.028Z,1.03
2023-12-28T16:01:19.717Z,1.83
2023-12-28T16:04:21.206Z,1.35
2023-12-28T16:07:22.661Z,0.63
2023-12-28T16:10:24.070Z,1.13
2023-12-28T16:13:25.460Z,2.50
2023-12-28T16:16:26.892Z,1.40
2023-12-28T16:19:28.311Z,1.03
2023-12-28T16:22:29.774Z,1.15
2023-12-28T16:25:31.191Z,0.98
2023-12-28T16:28:32.617Z,1.80
2023-12-28T16:31:34.112Z,1.08
2023-12-28T16:34:35.789Z,1.42
2023-12-28T16:37:37.269Z,1.25
2023-12-28T16:40:38.787Z,1.08
2023-12-28T16:43:40.424Z,1.08
2023-12-28T16:46:41.862Z,1.17
2023-12-28T16:49:43.483Z,1.30
2023-12-28T16:52:44.982Z,1.00
2023-12-28T16:55:46.523Z,1.10
2023-12-28T16:58:47.946Z,0.90
2023-12-28T17:01:49.406Z,0.80
2023-12-28T17:04:50.983Z,1.00
2023-12-28T17:07:52.581Z,0.60
2023-12-28T17:10:53.995Z,0.60
2023-12-28T17:13:55.386Z,0.60
2023-12-28T17:16:56.826Z,0.68
2023-12-28T17:19:58.240Z,1.10
2023-12-28T17:22:59.684Z,1.33
2023-12-28T17:26:01.089Z,0.52
2023-12-28T17:29:02.537Z,1.40
2023-12-28T17:32:03.982Z,0.43
2023-12-28T17:35:07.980Z,0.90
2023-12-28T17:38:09.877Z,0.60
2023-12-28T17:41:11.289Z,0.60
2023-12-28T17:44:12.726Z,0.77
2023-12-28T17:47:14.149Z,0.80
2023-12-28T17:50:18.341Z,1.13
2023-12-28T17:53:21.661Z,1.45
2023-12-28T17:56:23.108Z,0.65
2023-12-28T17:59:29.618Z,0.70
2023-12-28T18:02:32.168Z,0.70
2023-12-28T18:05:33.581Z,0.70
2023-12-28T18:08:35.076Z,0.55
2023-12-28T18:11:36.479Z,0.73
2023-12-28T18:14:37.963Z,0.82
2023-12-28T18:17:39.443Z,1.15
2023-12-28T18:20:40.891Z,1.10
2023-12-28T18:23:42.339Z,0.40
2023-12-28T18:26:43.774Z,0.57
2023-12-28T18:29:45.205Z,0.70
2023-12-28T18:32:46.715Z,1.00
2023-12-28T18:35:48.181Z,0.73
2023-12-28T18:38:49.636Z,1.00
2023-12-28T18:41:51.071Z,0.77
2023-12-28T18:44:52.495Z,1.27
2023-12-28T18:47:53.969Z,1.20
2023-12-28T18:50:56.128Z,1.10
2023-12-28T18:53:57.797Z,5.00
2023-12-28T18:56:59.186Z,7.20
2023-12-28T19:00:00.601Z,9.73
2023-12-28T19:03:02.043Z,9.02
2023-12-28T19:06:03.606Z,9.68
2023-12-28T19:09:04.996Z,12.40
2023-12-28T19:12:06.426Z,10.23
2023-12-28T19:15:07.982Z,9.83
2023-12-28T19:18:09.478Z,9.33
2023-12-28T19:21:10.909Z,8.53
2023-12-28T19:24:12.326Z,7.33
2023-12-28T19:27:13.737Z,7.70
2023-12-28T19:30:15.231Z,6.57
2023-12-28T19:33:16.814Z,7.32
2023-12-28T19:36:18.278Z,7.65
2023-12-28T19:39:19.712Z,7.82
2023-12-28T19:42:21.156Z,5.88
2023-12-28T19:45:22.548Z,7.65
2023-12-28T19:48:24.181Z,6.00
2023-12-28T19:51:25.769Z,4.90
2023-12-28T19:54:27.270Z,6.78
2023-12-28T19:57:28.789Z,6.65
2023-12-28T20:00:30.420Z,4.90
2023-12-28T20:03:31.975Z,5.18
2023-12-28T20:06:33.573Z,5.13
2023-12-28T20:09:35.144Z,5.32
2023-12-28T20:12:36.737Z,5.10
2023-12-28T20:15:38.228Z,4.28
2023-12-28T20:18:39.895Z,5.03
2023-12-28T20:21:41.470Z,5.22
2023-12-28T20:24:42.937Z,4.88
2023-12-28T20:27:44.411Z,3.97
2023-12-28T20:30:45.932Z,4.45
2023-12-28T20:33:47.472Z,4.68
2023-12-28T20:36:48.958Z,4.22
2023-12-28T20:39:50.397Z,3.97
2023-12-28T20:42:51.853Z,4.43
2023-12-28T20:45:53.355Z,2.97
2023-12-28T20:48:54.813Z,3.57
2023-12-28T20:51:56.253Z,3.05
2023-12-28T20:54:57.821Z,3.60
2023-12-28T20:57:59.639Z,3.65
2023-12-28T21:01:01.352Z,2.80
2023-12-28T21:04:02.904Z,2.75
2023-12-28T21:07:04.540Z,2.40
2023-12-28T21:10:06.164Z,2.58
2023-12-28T21:13:07.702Z,2.70
2023-12-28T21:16:09.313Z,3.33
2023-12-28T21:19:10.896Z,1.88
2023-12-28T21:22:12.466Z,2.63
2023-12-28T21:25:14.030Z,2.58
2023-12-28T21:28:15.534Z,2.22
2023-12-28T21:31:17.095Z,2.60
2023-12-28T21:34:18.669Z,1.92
2023-12-28T21:37:20.212Z,2.00
2023-12-28T21:40:21.759Z,1.67
2023-12-28T21:43:23.194Z,1.80
2023-12-28T21:46:24.620Z,1.90
2023-12-28T21:49:26.139Z,1.58
2023-12-28T21:52:27.622Z,2.15
2023-12-28T21:55:29.071Z,1.90
2023-12-28T21:58:30.556Z,1.60
2023-12-28T22:01:32.059Z,1.35
2023-12-28T22:04:33.642Z,1.33
2023-12-28T22:07:35.130Z,1.27
2023-12-28T22:10:36.554Z,1.90
2023-12-28T22:13:38.182Z,1.03
2023-12-28T22:16:39.793Z,1.17
2023-12-28T22:19:41.320Z,1.65
2023-12-28T22:22:42.798Z,0.80
2023-12-28T22:25:44.580Z,1.25
2023-12-28T22:28:45.976Z,1.38
2023-12-28T22:31:47.560Z,0.82
2023-12-28T22:34:49.169Z,1.42
2023-12-28T22:37:50.628Z,1.70
2023-12-28T22:40:52.032Z,1.30
2023-12-28T22:43:53.470Z,1.70
2023-12-28T22:46:54.908Z,1.20
2023-12-28T22:49:56.363Z,0.80
2023-12-28T22:52:57.872Z,0.77
2023-12-28T22:55:59.299Z,1.50
2023-12-28T22:59:00.702Z,0.43
2023-12-28T23:02:02.171Z,1.00
2023-12-28T23:05:03.644Z,0.85
2023-12-28T23:08:05.126Z,0.60
2023-12-28T23:11:06.620Z,1.10
2023-12-28T23:14:08.038Z,0.95
2023-12-28T23:17:09.468Z,0.43
2023-12-28T23:20:10.866Z,0.55
2023-12-28T23:23:12.308Z,0.82
2023-12-28T23:26:13.752Z,0.82
2023-12-28T23:29:15.521Z,1.50
2023-12-28T23:32:17.049Z,0.50
2023-12-28T23:35:18.517Z,1.00
2023-12-28T23:38:20.016Z,0.68
2023-12-28T23:41:21.431Z,0.80
2023-12-28T23:44:22.833Z,1.10
2023-12-28T23:47:24.199Z,0.50
2023-12-28T23:50:25.651Z,0.30
2023-12-28T23:53:27.096Z,0.73
2023-12-28T23:56:28.723Z,0.70
2023-12-28T23:59:30.142Z,0.70
